sensor_id;sensor_type;location;lat;lon;timestamp;P1;durP1;ratioP1;P2;durP2;ratioP2
83690;SDS011;73671;43.220;0.064;2024-01-27T00:00:17;55.67;;;28.63;;
83690;SDS011;73671;43.220;0.064;2024-01-27T00:02:43;53.05;;;27.02;;
83690;SDS011;73671;43.220;0.064;2024-01-27T00:05:08;55.42;;;27.40;;
83690;SDS011;73671;43.220;0.064;2024-01-27T00:07:34;56.28;;;25.58;;
83690;SDS011;73671;43.220;0.064;2024-01-27T00:09:59;43.75;;;22.08;;
83690;SDS011;73671;43.220;0.064;2024-01-27T00:12:25;45.35;;;22.70;;
83690;SDS011;73671;43.220;0.064;2024-01-27T00:14:51;78.75;;;26.48;;
83690;SDS011;73671;43.220;0.064;2024-01-27T00:17:16;71.57;;;26.23;;
83690;SDS011;73671;43.220;0.064;2024-01-27T00:19:41;75.07;;;26.98;;
83690;SDS011;73671;43.220;0.064;2024-01-27T00:22:07;66.05;;;26.42;;
83690;SDS011;73671;43.220;0.064;2024-01-27T00:24:33;65.65;;;26.55;;
83690;SDS011;73671;43.220;0.064;2024-01-27T00:26:59;69.28;;;26.13;;
83690;SDS011;73671;43.220;0.064;2024-01-27T00:29:25;64.75;;;24.38;;
83690;SDS011;73671;43.220;0.064;2024-01-27T00:31:50;47.83;;;22.90;;
83690;SDS011;73671;43.220;0.064;2024-01-27T00:34:16;68.60;;;24.17;;
83690;SDS011;73671;43.220;0.064;2024-01-27T00:36:41;40.05;;;23.58;;
83690;SDS011;73671;43.220;0.064;2024-01-27T00:39:13;44.03;;;22.65;;
83690;SDS011;73671;43.220;0.064;2024-01-27T00:41:42;54.15;;;25.80;;
83690;SDS011;73671;43.220;0.064;2024-01-27T00:44:08;85.50;;;25.63;;
83690;SDS011;73671;43.220;0.064;2024-01-27T00:46:34;65.43;;;24.02;;
83690;SDS011;73671;43.220;0.064;2024-01-27T00:48:59;83.63;;;26.25;;
83690;SDS011;73671;43.220;0.064;2024-01-27T00:51:24;82.65;;;26.75;;
83690;SDS011;73671;43.220;0.064;2024-01-27T00:53:50;90.15;;;27.63;;
83690;SDS011;73671;43.220;0.064;2024-01-27T00:56:15;72.05;;;24.77;;
83690;SDS011;73671;43.220;0.064;2024-01-27T00:58:41;64.88;;;25.52;;
83690;SDS011;73671;43.220;0.064;2024-01-27T01:01:06;50.25;;;23.80;;
83690;SDS011;73671;43.220;0.064;2024-01-27T01:03:32;61.63;;;23.23;;
83690;SDS011;73671;43.220;0.064;2024-01-27T01:05:57;42.05;;;21.23;;
83690;SDS011;73671;43.220;0.064;2024-01-27T01:08:22;37.22;;;21.27;;
83690;SDS011;73671;43.220;0.064;2024-01-27T01:10:48;47.20;;;21.40;;
83690;SDS011;73671;43.220;0.064;2024-01-27T01:13:13;48.22;;;21.23;;
83690;SDS011;73671;43.220;0.064;2024-01-27T01:15:39;44.40;;;20.02;;
83690;SDS011;73671;43.220;0.064;2024-01-27T01:18:04;64.10;;;22.15;;
83690;SDS011;73671;43.220;0.064;2024-01-27T01:20:30;44.90;;;20.55;;
83690;SDS011;73671;43.220;0.064;2024-01-27T01:22:57;47.10;;;19.75;;
83690;SDS011;73671;43.220;0.064;2024-01-27T01:25:22;46.90;;;19.95;;
83690;SDS011;73671;43.220;0.064;2024-01-27T01:27:47;57.50;;;20.75;;
83690;SDS011;73671;43.220;0.064;2024-01-27T01:30:14;57.85;;;18.20;;
83690;SDS011;73671;43.220;0.064;2024-01-27T01:32:40;43.55;;;17.73;;
83690;SDS011;73671;43.220;0.064;2024-01-27T01:35:05;50.08;;;17.92;;
83690;SDS011;73671;43.220;0.064;2024-01-27T01:37:31;49.15;;;18.02;;
83690;SDS011;73671;43.220;0.064;2024-01-27T01:39:56;39.17;;;17.23;;
83690;SDS011;73671;43.220;0.064;2024-01-27T01:42:22;41.60;;;16.85;;
83690;SDS011;73671;43.220;0.064;2024-01-27T01:44:49;37.33;;;17.00;;
83690;SDS011;73671;43.220;0.064;2024-01-27T01:47:16;32.20;;;17.70;;
83690;SDS011;73671;43.220;0.064;2024-01-27T01:49:41;23.50;;;16.45;;
83690;SDS011;73671;43.220;0.064;2024-01-27T01:52:07;26.75;;;16.95;;
83690;SDS011;73671;43.220;0.064;2024-01-27T01:54:32;39.30;;;20.05;;
83690;SDS011;73671;43.220;0.064;2024-01-27T01:56:58;38.88;;;21.58;;
83690;SDS011;73671;43.220;0.064;2024-01-27T01:59:24;62.78;;;21.63;;
83690;SDS011;73671;43.220;0.064;2024-01-27T02:01:49;62.65;;;22.38;;
83690;SDS011;73671;43.220;0.064;2024-01-27T02:04:15;119.03;;;20.90;;
83690;SDS011;73671;43.220;0.064;2024-01-27T02:06:40;108.85;;;21.70;;
83690;SDS011;73671;43.220;0.064;2024-01-27T02:09:06;134.02;;;20.73;;
83690;SDS011;73671;43.220;0.064;2024-01-27T02:11:31;107.38;;;17.23;;
83690;SDS011;73671;43.220;0.064;2024-01-27T02:13:56;170.40;;;16.23;;
83690;SDS011;73671;43.220;0.064;2024-01-27T02:16:22;232.73;;;16.98;;
83690;SDS011;73671;43.220;0.064;2024-01-27T02:18:47;154.60;;;15.27;;
83690;SDS011;73671;43.220;0.064;2024-01-27T02:21:13;160.05;;;14.98;;
83690;SDS011;73671;43.220;0.064;2024-01-27T02:23:38;161.18;;;17.23;;
83690;SDS011;73671;43.220;0.064;2024-01-27T02:26:03;106.53;;;14.55;;
83690;SDS011;73671;43.220;0.064;2024-01-27T02:28:29;127.40;;;14.18;;
83690;SDS011;73671;43.220;0.064;2024-01-27T02:30:57;139.60;;;15.10;;
83690;SDS011;73671;43.220;0.064;2024-01-27T02:33:24;100.45;;;17.27;;
83690;SDS011;73671;43.220;0.064;2024-01-27T02:35:50;48.50;;;15.25;;
83690;SDS011;73671;43.220;0.064;2024-01-27T02:38:15;54.58;;;17.13;;
83690;SDS011;73671;43.220;0.064;2024-01-27T02:40:41;84.55;;;18.52;;
83690;SDS011;73671;43.220;0.064;2024-01-27T02:43:06;82.25;;;18.42;;
83690;SDS011;73671;43.220;0.064;2024-01-27T02:45:32;95.13;;;18.98;;
83690;SDS011;73671;43.220;0.064;2024-01-27T02:47:57;98.40;;;17.75;;
83690;SDS011;73671;43.220;0.064;2024-01-27T02:50:22;68.50;;;17.73;;
83690;SDS011;73671;43.220;0.064;2024-01-27T02:52:48;54.25;;;15.52;;
83690;SDS011;73671;43.220;0.064;2024-01-27T02:55:13;71.35;;;17.20;;
83690;SDS011;73671;43.220;0.064;2024-01-27T02:57:40;68.95;;;17.98;;
83690;SDS011;73671;43.220;0.064;2024-01-27T03:00:06;91.43;;;18.92;;
83690;SDS011;73671;43.220;0.064;2024-01-27T03:02:32;69.93;;;17.35;;
83690;SDS011;73671;43.220;0.064;2024-01-27T03:04:57;97.43;;;20.65;;
83690;SDS011;73671;43.220;0.064;2024-01-27T03:07:22;135.75;;;19.27;;
83690;SDS011;73671;43.220;0.064;2024-01-27T03:09:48;58.58;;;14.80;;
83690;SDS011;73671;43.220;0.064;2024-01-27T03:12:14;121.28;;;17.35;;
83690;SDS011;73671;43.220;0.064;2024-01-27T03:14:40;85.15;;;15.35;;
83690;SDS011;73671;43.220;0.064;2024-01-27T03:17:06;48.03;;;15.65;;
83690;SDS011;73671;43.220;0.064;2024-01-27T03:19:32;74.35;;;15.88;;
83690;SDS011;73671;43.220;0.064;2024-01-27T03:21:57;73.43;;;14.45;;
83690;SDS011;73671;43.220;0.064;2024-01-27T03:24:23;70.25;;;14.68;;
83690;SDS011;73671;43.220;0.064;2024-01-27T03:26:48;73.22;;;15.68;;
83690;SDS011;73671;43.220;0.064;2024-01-27T03:29:14;39.15;;;13.68;;
83690;SDS011;73671;43.220;0.064;2024-01-27T03:31:39;56.83;;;14.38;;
83690;SDS011;73671;43.220;0.064;2024-01-27T03:34:04;70.65;;;14.15;;
83690;SDS011;73671;43.220;0.064;2024-01-27T03:36:30;50.95;;;13.00;;
83690;SDS011;73671;43.220;0.064;2024-01-27T03:38:56;52.03;;;13.07;;
83690;SDS011;73671;43.220;0.064;2024-01-27T03:41:22;80.38;;;14.95;;
83690;SDS011;73671;43.220;0.064;2024-01-27T03:43:49;70.70;;;13.85;;
83690;SDS011;73671;43.220;0.064;2024-01-27T03:46:14;68.32;;;13.02;;
83690;SDS011;73671;43.220;0.064;2024-01-27T03:48:39;98.32;;;14.98;;
83690;SDS011;73671;43.220;0.064;2024-01-27T03:51:05;124.88;;;14.93;;
83690;SDS011;73671;43.220;0.064;2024-01-27T03:53:30;68.97;;;14.63;;
83690;SDS011;73671;43.220;0.064;2024-01-27T03:55:56;74.03;;;12.60;;
83690;SDS011;73671;43.220;0.064;2024-01-27T03:58:24;96.05;;;13.65;;
83690;SDS011;73671;43.220;0.064;2024-01-27T04:00:50;83.22;;;13.80;;
83690;SDS011;73671;43.220;0.064;2024-01-27T04:03:16;110.10;;;14.55;;
83690;SDS011;73671;43.220;0.064;2024-01-27T04:05:42;172.30;;;15.45;;
83690;SDS011;73671;43.220;0.064;2024-01-27T04:08:07;111.88;;;15.60;;
83690;SDS011;73671;43.220;0.064;2024-01-27T04:10:33;129.63;;;15.25;;
83690;SDS011;73671;43.220;0.064;2024-01-27T04:12:59;88.82;;;12.75;;
83690;SDS011;73671;43.220;0.064;2024-01-27T04:15:24;87.63;;;15.73;;
83690;SDS011;73671;43.220;0.064;2024-01-27T04:17:49;158.77;;;16.48;;
83690;SDS011;73671;43.220;0.064;2024-01-27T04:20:15;135.95;;;14.63;;
83690;SDS011;73671;43.220;0.064;2024-01-27T04:22:41;99.30;;;14.55;;
83690;SDS011;73671;43.220;0.064;2024-01-27T04:25:07;106.35;;;14.27;;
83690;SDS011;73671;43.220;0.064;2024-01-27T04:27:36;74.72;;;14.68;;
83690;SDS011;73671;43.220;0.064;2024-01-27T04:30:03;94.35;;;15.25;;
83690;SDS011;73671;43.220;0.064;2024-01-27T04:32:30;51.17;;;14.27;;
83690;SDS011;73671;43.220;0.064;2024-01-27T04:34:55;62.58;;;14.20;;
83690;SDS011;73671;43.220;0.064;2024-01-27T04:37:20;45.45;;;12.88;;
83690;SDS011;73671;43.220;0.064;2024-01-27T04:39:46;90.68;;;14.18;;
83690;SDS011;73671;43.220;0.064;2024-01-27T04:42:11;55.38;;;12.57;;
83690;SDS011;73671;43.220;0.064;2024-01-27T04:44:39;40.05;;;11.35;;
83690;SDS011;73671;43.220;0.064;2024-01-27T04:47:06;99.80;;;13.35;;
83690;SDS011;73671;43.220;0.064;2024-01-27T04:49:32;59.53;;;13.27;;
83690;SDS011;73671;43.220;0.064;2024-01-27T04:51:57;62.35;;;12.55;;
83690;SDS011;73671;43.220;0.064;2024-01-27T04:54:22;87.30;;;14.48;;
83690;SDS011;73671;43.220;0.064;2024-01-27T04:56:48;87.85;;;15.73;;
83690;SDS011;73671;43.220;0.064;2024-01-27T04:59:13;96.25;;;14.63;;
83690;SDS011;73671;43.220;0.064;2024-01-27T05:01:38;105.07;;;16.10;;
83690;SDS011;73671;43.220;0.064;2024-01-27T05:04:04;180.90;;;21.02;;
83690;SDS011;73671;43.220;0.064;2024-01-27T05:06:30;124.53;;;14.95;;
83690;SDS011;73671;43.220;0.064;2024-01-27T05:08:55;219.23;;;18.90;;
83690;SDS011;73671;43.220;0.064;2024-01-27T05:11:30;148.50;;;17.95;;
83690;SDS011;73671;43.220;0.064;2024-01-27T05:13:57;87.10;;;14.35;;
83690;SDS011;73671;43.220;0.064;2024-01-27T05:16:26;172.88;;;16.88;;
83690;SDS011;73671;43.220;0.064;2024-01-27T05:18:51;243.90;;;17.92;;
83690;SDS011;73671;43.220;0.064;2024-01-27T05:21:16;168.07;;;15.73;;
83690;SDS011;73671;43.220;0.064;2024-01-27T05:23:42;182.65;;;19.65;;
83690;SDS011;73671;43.220;0.064;2024-01-27T05:26:07;177.68;;;18.75;;
83690;SDS011;73671;43.220;0.064;2024-01-27T05:28:33;204.63;;;18.52;;
83690;SDS011;73671;43.220;0.064;2024-01-27T05:30:59;163.13;;;17.83;;
83690;SDS011;73671;43.220;0.064;2024-01-27T05:33:24;151.88;;;17.33;;
83690;SDS011;73671;43.220;0.064;2024-01-27T05:35:49;197.68;;;19.85;;
83690;SDS011;73671;43.220;0.064;2024-01-27T05:38:15;143.70;;;16.92;;
83690;SDS011;73671;43.220;0.064;2024-01-27T05:40:41;88.90;;;15.57;;
83690;SDS011;73671;43.220;0.064;2024-01-27T05:43:06;176.63;;;18.27;;
83690;SDS011;73671;43.220;0.064;2024-01-27T05:45:32;143.23;;;16.00;;
83690;SDS011;73671;43.220;0.064;2024-01-27T05:47:57;141.13;;;16.88;;
83690;SDS011;73671;43.220;0.064;2024-01-27T05:50:23;151.57;;;16.88;;
83690;SDS011;73671;43.220;0.064;2024-01-27T05:52:48;123.72;;;16.95;;
83690;SDS011;73671;43.220;0.064;2024-01-27T05:55:13;104.45;;;17.45;;
83690;SDS011;73671;43.220;0.064;2024-01-27T05:57:39;101.93;;;17.75;;
83690;SDS011;73671;43.220;0.064;2024-01-27T06:00:04;106.57;;;17.30;;
83690;SDS011;73671;43.220;0.064;2024-01-27T06:02:30;76.78;;;17.67;;
83690;SDS011;73671;43.220;0.064;2024-01-27T06:04:56;57.10;;;14.98;;
83690;SDS011;73671;43.220;0.064;2024-01-27T06:07:21;75.63;;;14.60;;
83690;SDS011;73671;43.220;0.064;2024-01-27T06:09:46;58.00;;;13.15;;
83690;SDS011;73671;43.220;0.064;2024-01-27T06:12:12;91.45;;;19.40;;
83690;SDS011;73671;43.220;0.064;2024-01-27T06:14:37;98.53;;;18.25;;
83690;SDS011;73671;43.220;0.064;2024-01-27T06:17:04;62.90;;;16.95;;
83690;SDS011;73671;43.220;0.064;2024-01-27T06:19:30;60.55;;;16.42;;
83690;SDS011;73671;43.220;0.064;2024-01-27T06:21:55;80.57;;;15.30;;
83690;SDS011;73671;43.220;0.064;2024-01-27T06:24:20;59.15;;;12.52;;
83690;SDS011;73671;43.220;0.064;2024-01-27T06:26:46;79.07;;;12.48;;
83690;SDS011;73671;43.220;0.064;2024-01-27T06:29:11;64.32;;;12.00;;
83690;SDS011;73671;43.220;0.064;2024-01-27T06:31:37;50.55;;;11.60;;
83690;SDS011;73671;43.220;0.064;2024-01-27T06:34:02;64.82;;;14.18;;
83690;SDS011;73671;43.220;0.064;2024-01-27T06:36:27;87.20;;;13.25;;
83690;SDS011;73671;43.220;0.064;2024-01-27T06:38:53;91.97;;;13.32;;
83690;SDS011;73671;43.220;0.064;2024-01-27T06:41:19;39.50;;;12.32;;
83690;SDS011;73671;43.220;0.064;2024-01-27T06:43:45;81.00;;;13.55;;
83690;SDS011;73671;43.220;0.064;2024-01-27T06:46:10;60.40;;;12.95;;
83690;SDS011;73671;43.220;0.064;2024-01-27T06:48:35;67.93;;;13.65;;
83690;SDS011;73671;43.220;0.064;2024-01-27T06:51:01;75.18;;;15.18;;
83690;SDS011;73671;43.220;0.064;2024-01-27T06:53:26;75.32;;;13.63;;
83690;SDS011;73671;43.220;0.064;2024-01-27T06:55:52;68.55;;;14.23;;
83690;SDS011;73671;43.220;0.064;2024-01-27T06:58:17;131.68;;;13.73;;
83690;SDS011;73671;43.220;0.064;2024-01-27T07:00:42;105.50;;;14.02;;
83690;SDS011;73671;43.220;0.064;2024-01-27T07:03:09;122.32;;;14.65;;
83690;SDS011;73671;43.220;0.064;2024-01-27T07:05:35;101.15;;;13.35;;
83690;SDS011;73671;43.220;0.064;2024-01-27T07:08:04;109.07;;;14.98;;
83690;SDS011;73671;43.220;0.064;2024-01-27T07:10:31;177.10;;;18.48;;
83690;SDS011;73671;43.220;0.064;2024-01-27T07:12:56;126.47;;;15.77;;
83690;SDS011;73671;43.220;0.064;2024-01-27T07:15:22;137.98;;;16.40;;
83690;SDS011;73671;43.220;0.064;2024-01-27T07:17:48;127.47;;;13.57;;
83690;SDS011;73671;43.220;0.064;2024-01-27T07:20:14;100.85;;;13.00;;
83690;SDS011;73671;43.220;0.064;2024-01-27T07:22:39;82.13;;;16.88;;
83690;SDS011;73671;43.220;0.064;2024-01-27T07:25:05;73.13;;;12.13;;
83690;SDS011;73671;43.220;0.064;2024-01-27T07:27:32;78.00;;;15.07;;
83690;SDS011;73671;43.220;0.064;2024-01-27T07:29:57;79.57;;;12.55;;
83690;SDS011;73671;43.220;0.064;2024-01-27T07:32:22;29.67;;;11.80;;
83690;SDS011;73671;43.220;0.064;2024-01-27T07:34:48;54.97;;;12.15;;
83690;SDS011;73671;43.220;0.064;2024-01-27T07:37:13;43.45;;;11.82;;
83690;SDS011;73671;43.220;0.064;2024-01-27T07:39:38;48.38;;;11.48;;
83690;SDS011;73671;43.220;0.064;2024-01-27T07:42:04;48.63;;;12.18;;
83690;SDS011;73671;43.220;0.064;2024-01-27T07:44:29;43.97;;;11.48;;
83690;SDS011;73671;43.220;0.064;2024-01-27T07:46:55;38.08;;;12.30;;
83690;SDS011;73671;43.220;0.064;2024-01-27T07:49:20;60.60;;;11.43;;
83690;SDS011;73671;43.220;0.064;2024-01-27T07:51:45;47.30;;;12.23;;
83690;SDS011;73671;43.220;0.064;2024-01-27T07:54:11;55.15;;;12.95;;
83690;SDS011;73671;43.220;0.064;2024-01-27T07:56:37;45.40;;;14.40;;
83690;SDS011;73671;43.220;0.064;2024-01-27T07:59:03;86.30;;;12.77;;
83690;SDS011;73671;43.220;0.064;2024-01-27T08:01:28;58.35;;;13.15;;
83690;SDS011;73671;43.220;0.064;2024-01-27T08:03:54;85.68;;;12.20;;
83690;SDS011;73671;43.220;0.064;2024-01-27T08:06:22;51.92;;;11.73;;
83690;SDS011;73671;43.220;0.064;2024-01-27T08:08:52;64.03;;;12.35;;
83690;SDS011;73671;43.220;0.064;2024-01-27T08:11:18;89.90;;;12.75;;
83690;SDS011;73671;43.220;0.064;2024-01-27T08:13:43;102.78;;;14.32;;
83690;SDS011;73671;43.220;0.064;2024-01-27T08:16:09;88.53;;;12.60;;
83690;SDS011;73671;43.220;0.064;2024-01-27T08:18:37;59.47;;;10.82;;
83690;SDS011;73671;43.220;0.064;2024-01-27T08:21:07;59.67;;;12.77;;
83690;SDS011;73671;43.220;0.064;2024-01-27T08:23:33;64.55;;;11.32;;
83690;SDS011;73671;43.220;0.064;2024-01-27T08:25:58;61.17;;;11.50;;
83690;SDS011;73671;43.220;0.064;2024-01-27T08:28:23;70.88;;;12.50;;
83690;SDS011;73671;43.220;0.064;2024-01-27T08:30:49;131.18;;;14.48;;
83690;SDS011;73671;43.220;0.064;2024-01-27T08:33:14;113.25;;;13.00;;
83690;SDS011;73671;43.220;0.064;2024-01-27T08:35:40;81.20;;;12.55;;
83690;SDS011;73671;43.220;0.064;2024-01-27T08:38:05;124.88;;;14.43;;
83690;SDS011;73671;43.220;0.064;2024-01-27T08:40:31;71.57;;;14.50;;
83690;SDS011;73671;43.220;0.064;2024-01-27T08:42:57;52.83;;;13.05;;
83690;SDS011;73671;43.220;0.064;2024-01-27T08:45:22;47.80;;;14.85;;
83690;SDS011;73671;43.220;0.064;2024-01-27T08:47:48;75.95;;;15.20;;
83690;SDS011;73671;43.220;0.064;2024-01-27T08:50:14;58.50;;;13.75;;
83690;SDS011;73671;43.220;0.064;2024-01-27T08:52:39;52.17;;;14.05;;
83690;SDS011;73671;43.220;0.064;2024-01-27T08:55:05;46.40;;;15.00;;
83690;SDS011;73671;43.220;0.064;2024-01-27T08:57:30;46.05;;;14.75;;
83690;SDS011;73671;43.220;0.064;2024-01-27T08:59:55;76.00;;;17.42;;
83690;SDS011;73671;43.220;0.064;2024-01-27T09:02:21;57.30;;;15.57;;
83690;SDS011;73671;43.220;0.064;2024-01-27T09:04:46;64.45;;;15.98;;
83690;SDS011;73671;43.220;0.064;2024-01-27T09:07:15;71.82;;;15.43;;
83690;SDS011;73671;43.220;0.064;2024-01-27T09:09:41;79.93;;;13.95;;
83690;SDS011;73671;43.220;0.064;2024-01-27T09:12:06;58.15;;;13.50;;
83690;SDS011;73671;43.220;0.064;2024-01-27T09:14:33;56.53;;;13.43;;
83690;SDS011;73671;43.220;0.064;2024-01-27T09:17:01;50.78;;;13.52;;
83690;SDS011;73671;43.220;0.064;2024-01-27T09:19:27;53.50;;;13.95;;
83690;SDS011;73671;43.220;0.064;2024-01-27T09:21:52;58.83;;;13.70;;
83690;SDS011;73671;43.220;0.064;2024-01-27T09:24:18;65.38;;;14.65;;
83690;SDS011;73671;43.220;0.064;2024-01-27T09:26:43;55.72;;;14.10;;
83690;SDS011;73671;43.220;0.064;2024-01-27T09:29:08;46.70;;;14.38;;
83690;SDS011;73671;43.220;0.064;2024-01-27T09:31:34;52.50;;;14.65;;
83690;SDS011;73671;43.220;0.064;2024-01-27T09:33:59;39.05;;;13.80;;
83690;SDS011;73671;43.220;0.064;2024-01-27T09:36:25;28.55;;;13.50;;
83690;SDS011;73671;43.220;0.064;2024-01-27T09:38:51;27.65;;;12.68;;
83690;SDS011;73671;43.220;0.064;2024-01-27T09:41:17;36.42;;;13.50;;
83690;SDS011;73671;43.220;0.064;2024-01-27T09:43:43;29.00;;;12.82;;
83690;SDS011;73671;43.220;0.064;2024-01-27T09:46:13;20.20;;;11.93;;
83690;SDS011;73671;43.220;0.064;2024-01-27T09:48:39;26.55;;;12.63;;
83690;SDS011;73671;43.220;0.064;2024-01-27T09:51:07;18.15;;;11.77;;
83690;SDS011;73671;43.220;0.064;2024-01-27T09:53:33;19.92;;;12.40;;
83690;SDS011;73671;43.220;0.064;2024-01-27T09:55:59;21.90;;;12.38;;
83690;SDS011;73671;43.220;0.064;2024-01-27T09:58:26;20.88;;;11.75;;
83690;SDS011;73671;43.220;0.064;2024-01-27T10:00:54;26.42;;;11.77;;
83690;SDS011;73671;43.220;0.064;2024-01-27T10:03:23;18.98;;;11.32;;
83690;SDS011;73671;43.220;0.064;2024-01-27T10:05:50;15.52;;;11.52;;
83690;SDS011;73671;43.220;0.064;2024-01-27T10:08:17;15.77;;;10.85;;
83690;SDS011;73671;43.220;0.064;2024-01-27T10:10:42;16.75;;;11.98;;
83690;SDS011;73671;43.220;0.064;2024-01-27T10:13:07;21.42;;;12.25;;
83690;SDS011;73671;43.220;0.064;2024-01-27T10:15:38;26.35;;;13.98;;
83690;SDS011;73671;43.220;0.064;2024-01-27T10:18:06;26.17;;;15.63;;
83690;SDS011;73671;43.220;0.064;2024-01-27T10:20:33;24.95;;;16.02;;
83690;SDS011;73671;43.220;0.064;2024-01-27T10:22:59;22.67;;;15.20;;
83690;SDS011;73671;43.220;0.064;2024-01-27T10:25:39;24.85;;;15.23;;
83690;SDS011;73671;43.220;0.064;2024-01-27T10:28:06;22.55;;;15.85;;
83690;SDS011;73671;43.220;0.064;2024-01-27T10:30:33;21.50;;;14.30;;
83690;SDS011;73671;43.220;0.064;2024-01-27T10:32:59;21.35;;;14.48;;
83690;SDS011;73671;43.220;0.064;2024-01-27T10:35:24;20.60;;;14.20;;
83690;SDS011;73671;43.220;0.064;2024-01-27T10:37:54;18.88;;;13.48;;
83690;SDS011;73671;43.220;0.064;2024-01-27T10:40:20;18.00;;;12.57;;
83690;SDS011;73671;43.220;0.064;2024-01-27T10:42:51;16.50;;;12.23;;
83690;SDS011;73671;43.220;0.064;2024-01-27T10:45:36;15.35;;;12.20;;
83690;SDS011;73671;43.220;0.064;2024-01-27T10:48:04;18.50;;;12.38;;
83690;SDS011;73671;43.220;0.064;2024-01-27T10:50:31;15.00;;;11.68;;
83690;SDS011;73671;43.220;0.064;2024-01-27T10:53:00;17.10;;;12.32;;
83690;SDS011;73671;43.220;0.064;2024-01-27T10:55:29;16.15;;;11.90;;
83690;SDS011;73671;43.220;0.064;2024-01-27T10:57:56;19.23;;;13.27;;
83690;SDS011;73671;43.220;0.064;2024-01-27T11:00:24;17.95;;;13.25;;
83690;SDS011;73671;43.220;0.064;2024-01-27T11:02:51;16.63;;;12.60;;
83690;SDS011;73671;43.220;0.064;2024-01-27T11:05:19;15.70;;;11.90;;
83690;SDS011;73671;43.220;0.064;2024-01-27T11:07:46;16.35;;;11.80;;
83690;SDS011;73671;43.220;0.064;2024-01-27T11:10:12;17.23;;;12.13;;
83690;SDS011;73671;43.220;0.064;2024-01-27T11:12:37;17.25;;;12.05;;
83690;SDS011;73671;43.220;0.064;2024-01-27T11:15:04;14.30;;;11.32;;
83690;SDS011;73671;43.220;0.064;2024-01-27T11:17:40;14.75;;;11.68;;
83690;SDS011;73671;43.220;0.064;2024-01-27T11:20:09;15.05;;;11.45;;
83690;SDS011;73671;43.220;0.064;2024-01-27T11:22:36;13.82;;;11.35;;
83690;SDS011;73671;43.220;0.064;2024-01-27T11:27:38;13.50;;;10.73;;
83690;SDS011;73671;43.220;0.064;2024-01-27T11:30:04;14.38;;;11.10;;
83690;SDS011;73671;43.220;0.064;2024-01-27T11:32:30;15.70;;;10.52;;
83690;SDS011;73671;43.220;0.064;2024-01-27T11:34:56;15.60;;;10.55;;
83690;SDS011;73671;43.220;0.064;2024-01-27T11:37:22;14.48;;;10.27;;
83690;SDS011;73671;43.220;0.064;2024-01-27T11:39:50;15.80;;;10.45;;
83690;SDS011;73671;43.220;0.064;2024-01-27T11:42:19;13.70;;;10.18;;
83690;SDS011;73671;43.220;0.064;2024-01-27T11:44:45;13.40;;;10.43;;
83690;SDS011;73671;43.220;0.064;2024-01-27T11:47:14;13.38;;;9.88;;
83690;SDS011;73671;43.220;0.064;2024-01-27T11:49:42;13.38;;;10.90;;
83690;SDS011;73671;43.220;0.064;2024-01-27T11:52:08;20.58;;;11.75;;
83690;SDS011;73671;43.220;0.064;2024-01-27T11:54:33;16.75;;;12.20;;
83690;SDS011;73671;43.220;0.064;2024-01-27T11:56:59;18.65;;;13.90;;
83690;SDS011;73671;43.220;0.064;2024-01-27T11:59:24;22.00;;;13.82;;
83690;SDS011;73671;43.220;0.064;2024-01-27T12:01:49;20.95;;;14.10;;
83690;SDS011;73671;43.220;0.064;2024-01-27T12:04:15;17.77;;;14.07;;
83690;SDS011;73671;43.220;0.064;2024-01-27T12:06:42;21.33;;;14.63;;
83690;SDS011;73671;43.220;0.064;2024-01-27T12:09:08;25.13;;;14.02;;
83690;SDS011;73671;43.220;0.064;2024-01-27T12:11:38;19.92;;;13.90;;
83690;SDS011;73671;43.220;0.064;2024-01-27T12:14:07;20.75;;;13.90;;
83690;SDS011;73671;43.220;0.064;2024-01-27T12:16:32;18.77;;;12.70;;
83690;SDS011;73671;43.220;0.064;2024-01-27T12:18:58;19.58;;;12.40;;
83690;SDS011;73671;43.220;0.064;2024-01-27T12:21:24;16.13;;;11.10;;
83690;SDS011;73671;43.220;0.064;2024-01-27T12:23:50;13.52;;;9.43;;
83690;SDS011;73671;43.220;0.064;2024-01-27T12:26:16;11.70;;;9.00;;
83690;SDS011;73671;43.220;0.064;2024-01-27T12:28:45;11.65;;;8.57;;
83690;SDS011;73671;43.220;0.064;2024-01-27T12:31:10;12.80;;;8.57;;
83690;SDS011;73671;43.220;0.064;2024-01-27T12:33:36;12.73;;;8.20;;
83690;SDS011;73671;43.220;0.064;2024-01-27T12:36:01;10.55;;;7.30;;
83690;SDS011;73671;43.220;0.064;2024-01-27T12:38:27;14.05;;;7.40;;
83690;SDS011;73671;43.220;0.064;2024-01-27T12:40:52;10.65;;;7.45;;
83690;SDS011;73671;43.220;0.064;2024-01-27T12:43:17;10.75;;;7.47;;
83690;SDS011;73671;43.220;0.064;2024-01-27T12:45:43;12.80;;;7.25;;
83690;SDS011;73671;43.220;0.064;2024-01-27T12:48:08;9.95;;;7.00;;
83690;SDS011;73671;43.220;0.064;2024-01-27T12:50:34;10.02;;;6.78;;
83690;SDS011;73671;43.220;0.064;2024-01-27T12:52:59;13.50;;;7.05;;
83690;SDS011;73671;43.220;0.064;2024-01-27T12:55:24;11.93;;;7.38;;
83690;SDS011;73671;43.220;0.064;2024-01-27T12:57:50;10.60;;;7.40;;
83690;SDS011;73671;43.220;0.064;2024-01-27T13:00:15;9.30;;;6.72;;
83690;SDS011;73671;43.220;0.064;2024-01-27T13:02:42;11.93;;;7.22;;
83690;SDS011;73671;43.220;0.064;2024-01-27T13:05:08;10.15;;;6.80;;
83690;SDS011;73671;43.220;0.064;2024-01-27T13:07:34;10.77;;;7.70;;
83690;SDS011;73671;43.220;0.064;2024-01-27T13:10:00;21.17;;;13.23;;
83690;SDS011;73671;43.220;0.064;2024-01-27T13:12:25;13.75;;;7.57;;
83690;SDS011;73671;43.220;0.064;2024-01-27T13:14:50;12.88;;;7.70;;
83690;SDS011;73671;43.220;0.064;2024-01-27T13:17:16;12.65;;;7.72;;
83690;SDS011;73671;43.220;0.064;2024-01-27T13:19:41;12.30;;;7.20;;
83690;SDS011;73671;43.220;0.064;2024-01-27T13:22:07;10.18;;;6.65;;
83690;SDS011;73671;43.220;0.064;2024-01-27T13:24:33;10.57;;;6.53;;
83690;SDS011;73671;43.220;0.064;2024-01-27T13:26:58;10.18;;;6.35;;
83690;SDS011;73671;43.220;0.064;2024-01-27T13:29:25;16.35;;;7.97;;
83690;SDS011;73671;43.220;0.064;2024-01-27T13:31:52;9.90;;;5.75;;
83690;SDS011;73671;43.220;0.064;2024-01-27T13:34:17;11.25;;;6.22;;
83690;SDS011;73671;43.220;0.064;2024-01-27T13:36:43;14.65;;;6.80;;
83690;SDS011;73671;43.220;0.064;2024-01-27T13:39:09;13.60;;;6.53;;
83690;SDS011;73671;43.220;0.064;2024-01-27T13:41:34;14.80;;;8.00;;
83690;SDS011;73671;43.220;0.064;2024-01-27T13:43:59;18.67;;;9.82;;
83690;SDS011;73671;43.220;0.064;2024-01-27T13:46:25;12.90;;;7.03;;
83690;SDS011;73671;43.220;0.064;2024-01-27T13:48:50;14.75;;;7.05;;
83690;SDS011;73671;43.220;0.064;2024-01-27T13:51:16;11.52;;;6.03;;
83690;SDS011;73671;43.220;0.064;2024-01-27T13:53:41;12.55;;;6.00;;
83690;SDS011;73671;43.220;0.064;2024-01-27T13:56:06;13.30;;;6.30;;
83690;SDS011;73671;43.220;0.064;2024-01-27T13:58:32;14.70;;;5.97;;
83690;SDS011;73671;43.220;0.064;2024-01-27T14:00:58;13.10;;;6.00;;
83690;SDS011;73671;43.220;0.064;2024-01-27T14:03:23;10.85;;;5.88;;
83690;SDS011;73671;43.220;0.064;2024-01-27T14:05:49;12.45;;;5.53;;
83690;SDS011;73671;43.220;0.064;2024-01-27T14:08:14;30.75;;;6.75;;
83690;SDS011;73671;43.220;0.064;2024-01-27T14:10:42;14.75;;;6.93;;
83690;SDS011;73671;43.220;0.064;2024-01-27T14:13:08;16.08;;;7.13;;
83690;SDS011;73671;43.220;0.064;2024-01-27T14:15:37;14.32;;;5.70;;